createdAt,value
2023-01-17T00:01:34.275Z,116.35
2023-01-17T00:04:20.083Z,116.43
2023-01-17T00:07:06.243Z,116.30
2023-01-17T00:09:51.347Z,112.15
2023-01-17T00:12:18.325Z,111.28
2023-01-17T00:14:45.047Z,113.10
2023-01-17T00:17:12.042Z,116.78
2023-01-17T00:19:57.281Z,116.95
2023-01-17T00:22:42.514Z,115.43
2023-01-17T00:25:31.577Z,115.05
2023-01-17T00:27:58.531Z,115.75
2023-01-17T00:30:25.634Z,115.68
2023-01-17T00:32:52.279Z,107.82
2023-01-17T00:35:19.863Z,115.95
2023-01-17T00:37:46.530Z,119.25
2023-01-17T00:40:13.280Z,121.95
2023-01-17T00:42:39.967Z,125.22
2023-01-17T00:45:25.391Z,121.88
2023-01-17T00:48:10.597Z,119.25
2023-01-17T00:50:55.690Z,118.60
2023-01-17T00:53:41.060Z,120.63
2023-01-17T00:56:26.623Z,111.25
2023-01-17T00:59:12.837Z,116.40
2023-01-17T01:01:58.656Z,122.90
2023-01-17T01:04:44.243Z,124.20
2023-01-17T01:07:29.631Z,117.53
2023-01-17T01:10:14.934Z,119.30
2023-01-17T01:13:00.179Z,114.55
2023-01-17T01:15:45.253Z,120.43
2023-01-17T01:18:30.922Z,123.40
2023-01-17T01:21:20.458Z,116.90
2023-01-17T01:24:05.614Z,122.35
2023-01-17T01:26:50.844Z,131.55
2023-01-17T01:29:36.481Z,128.75
2023-01-17T01:32:22.110Z,134.85
2023-01-17T01:34:48.885Z,127.28
2023-01-17T01:37:15.547Z,129.02
2023-01-17T01:39:42.252Z,127.25
2023-01-17T01:42:13.458Z,140.68
2023-01-17T01:44:43.498Z,110.82
2023-01-17T01:47:12.429Z,121.32
2023-01-17T01:49:39.102Z,124.07
2023-01-17T01:52:06.797Z,139.90
2023-01-17T01:54:56.894Z,133.55
2023-01-17T01:57:24.875Z,127.72
2023-01-17T01:59:59.522Z,135.48
2023-01-17T02:02:28.479Z,131.75
2023-01-17T02:04:55.887Z,120.95
2023-01-17T02:07:29.521Z,134.35
2023-01-17T02:09:56.663Z,128.70
2023-01-17T02:12:23.569Z,129.25
2023-01-17T02:14:51.407Z,126.72
2023-01-17T02:17:26.891Z,135.63
2023-01-17T02:20:08.868Z,126.97
2023-01-17T02:22:41.754Z,127.00
2023-01-17T02:25:33.504Z,122.93
2023-01-17T02:28:15.655Z,113.50
2023-01-17T02:30:50.200Z,122.82
2023-01-17T02:33:33.714Z,130.32
2023-01-17T02:36:04.165Z,120.85
2023-01-17T02:38:46.759Z,125.63
2023-01-17T02:41:22.319Z,120.40
2023-01-17T02:43:50.669Z,125.40
2023-01-17T02:46:17.644Z,119.07
2023-01-17T02:48:44.858Z,125.80
2023-01-17T02:51:30.289Z,113.57
2023-01-17T02:54:12.592Z,128.18
2023-01-17T02:56:39.415Z,117.97
2023-01-17T02:59:10.671Z,109.10
2023-01-17T03:01:50.063Z,124.15
2023-01-17T03:04:40.428Z,117.85
2023-01-17T03:07:12.658Z,126.20
2023-01-17T03:09:43.589Z,133.27
2023-01-17T03:12:10.362Z,107.60
2023-01-17T03:14:37.070Z,108.63
2023-01-17T03:17:04.163Z,112.60
2023-01-17T03:19:31.430Z,114.35
2023-01-17T03:21:58.247Z,110.93
2023-01-17T03:24:24.932Z,109.60
2023-01-17T03:26:51.602Z,107.88
2023-01-17T03:29:18.300Z,112.72
2023-01-17T03:31:45.175Z,107.35
2023-01-17T03:34:11.836Z,100.60
2023-01-17T03:36:38.629Z,110.57
2023-01-17T03:39:05.521Z,102.68
2023-01-17T03:41:32.242Z,110.65
2023-01-17T03:43:58.941Z,101.70
2023-01-17T03:46:27.419Z,96.97
2023-01-17T03:48:54.594Z,108.03
2023-01-17T03:51:21.601Z,94.55
2023-01-17T03:53:48.448Z,97.68
2023-01-17T03:56:15.321Z,93.93
2023-01-17T03:58:42.082Z,107.85
2023-01-17T04:01:09.328Z,106.53
2023-01-17T04:03:36.340Z,101.82
2023-01-17T04:06:03.169Z,110.50
2023-01-17T04:08:30.607Z,94.03
2023-01-17T04:10:57.795Z,99.93
2023-01-17T04:13:24.901Z,109.05
2023-01-17T04:15:51.656Z,102.90
2023-01-17T04:18:19.517Z,115.32
2023-01-17T04:20:46.712Z,99.80
2023-01-17T04:23:13.527Z,111.60
2023-01-17T04:25:42.174Z,112.35
2023-01-17T04:28:10.216Z,114.70
2023-01-17T04:30:36.979Z,112.03
2023-01-17T04:33:03.980Z,111.97
2023-01-17T04:35:31.216Z,103.85
2023-01-17T04:37:57.909Z,103.95
2023-01-17T04:40:25.080Z,107.10
2023-01-17T04:42:51.982Z,94.45
2023-01-17T04:45:18.787Z,97.43
2023-01-17T04:47:45.556Z,97.68
2023-01-17T04:50:13.395Z,95.72
2023-01-17T04:52:40.118Z,87.47
2023-01-17T04:55:09.717Z,91.72
2023-01-17T04:57:36.404Z,92.82
2023-01-17T05:00:04.523Z,93.18
2023-01-17T05:02:31.279Z,103.47
2023-01-17T05:04:58.231Z,113.88
2023-01-17T05:07:25.749Z,103.82
2023-01-17T05:09:52.457Z,107.75
2023-01-17T05:12:19.096Z,101.07
2023-01-17T05:14:46.970Z,106.50
2023-01-17T05:17:13.705Z,100.68
2023-01-17T05:19:40.833Z,109.65
2023-01-17T05:22:15.233Z,108.40
2023-01-17T05:24:42.974Z,99.35
2023-01-17T05:27:10.166Z,116.70
2023-01-17T05:29:36.937Z,117.05
2023-01-17T05:32:03.885Z,104.95
2023-01-17T05:34:30.588Z,112.70
2023-01-17T05:37:00.184Z,97.82
2023-01-17T05:39:27.047Z,112.30
2023-01-17T05:41:53.788Z,116.85
2023-01-17T05:44:20.572Z,99.72
2023-01-17T05:46:47.298Z,123.30
2023-01-17T05:49:14.071Z,100.00
2023-01-17T05:51:40.906Z,107.10
2023-01-17T05:54:07.783Z,112.05
2023-01-17T05:56:34.533Z,123.85
2023-01-17T05:59:01.727Z,115.13
2023-01-17T06:01:29.110Z,119.32
2023-01-17T06:03:55.947Z,166.48
2023-01-17T06:06:22.915Z,200.07
2023-01-17T06:08:49.643Z,180.60
2023-01-17T06:11:16.512Z,170.80
2023-01-17T06:13:43.376Z,218.60
2023-01-17T06:16:10.149Z,164.30
2023-01-17T06:18:36.833Z,111.32
2023-01-17T06:21:05.560Z,111.15
2023-01-17T06:23:32.402Z,120.28
2023-01-17T06:26:01.764Z,116.32
2023-01-17T06:28:28.826Z,111.40
2023-01-17T06:30:55.541Z,111.65
2023-01-17T06:33:22.276Z,112.15
2023-01-17T06:35:52.675Z,119.05
2023-01-17T06:38:20.089Z,110.05
2023-01-17T06:40:47.077Z,107.22
2023-01-17T06:43:13.996Z,98.80
2023-01-17T06:45:41.255Z,98.97
2023-01-17T06:48:08.325Z,97.30
2023-01-17T06:50:35.200Z,111.90
2023-01-17T06:53:03.894Z,117.22
2023-01-17T06:55:31.650Z,121.57
2023-01-17T06:58:00.031Z,126.25
2023-01-17T07:00:27.698Z,118.45
2023-01-17T07:02:55.410Z,116.10
2023-01-17T07:05:22.424Z,115.35
2023-01-17T07:07:49.092Z,132.93
2023-01-17T07:10:16.038Z,114.75
2023-01-17T07:12:42.991Z,134.95
2023-01-17T07:15:10.238Z,130.20
2023-01-17T07:17:37.000Z,140.00
2023-01-17T07:20:03.906Z,144.15
2023-01-17T07:22:30.702Z,135.63
2023-01-17T07:24:58.785Z,135.10
2023-01-17T07:27:27.731Z,135.98
2023-01-17T07:29:54.602Z,133.88
2023-01-17T07:32:21.528Z,121.38
2023-01-17T07:34:48.896Z,125.50
2023-01-17T07:37:15.672Z,129.18
2023-01-17T07:39:42.784Z,129.15
2023-01-17T07:42:12.096Z,146.35
2023-01-17T07:44:41.369Z,141.90
2023-01-17T07:47:08.442Z,152.30
2023-01-17T07:49:35.351Z,150.25
2023-01-17T07:52:02.246Z,134.48
2023-01-17T07:54:29.035Z,138.10
2023-01-17T07:56:55.749Z,142.80
2023-01-17T07:59:23.283Z,134.43
2023-01-17T08:01:50.899Z,144.55
2023-01-17T08:04:18.177Z,146.23
2023-01-17T08:06:50.835Z,132.18
2023-01-17T08:09:17.875Z,147.05
2023-01-17T08:11:44.739Z,156.02
2023-01-17T08:14:11.660Z,150.82
2023-01-17T08:16:40.136Z,149.70
2023-01-17T08:19:07.228Z,141.13
2023-01-17T08:21:33.866Z,136.90
2023-01-17T08:24:00.584Z,133.27
2023-01-17T08:26:27.459Z,155.30
2023-01-17T08:28:55.670Z,133.75
2023-01-17T08:31:22.627Z,146.82
2023-01-17T08:33:49.547Z,158.98
2023-01-17T08:36:16.322Z,147.43
2023-01-17T08:38:43.063Z,115.28
2023-01-17T08:41:09.839Z,125.10
2023-01-17T08:43:36.893Z,90.07
2023-01-17T08:46:03.917Z,90.70
2023-01-17T08:48:31.036Z,86.45
2023-01-17T08:51:02.031Z,78.47
2023-01-17T08:53:28.963Z,75.22
2023-01-17T08:55:59.716Z,73.55
2023-01-17T08:58:29.747Z,69.10
2023-01-17T09:01:04.804Z,78.03
2023-01-17T09:03:32.193Z,67.40
2023-01-17T09:06:06.437Z,76.00
2023-01-17T09:08:33.455Z,73.75
2023-01-17T09:11:18.391Z,73.63
2023-01-17T09:13:45.205Z,61.42
2023-01-17T09:16:12.074Z,62.58
2023-01-17T09:18:39.299Z,62.00
2023-01-17T09:21:16.360Z,57.03
2023-01-17T09:23:43.262Z,54.72
2023-01-17T09:26:29.024Z,49.80
2023-01-17T09:28:56.226Z,48.22
2023-01-17T09:31:23.632Z,58.10
2023-01-17T09:33:50.941Z,47.33
2023-01-17T09:36:17.932Z,58.35
2023-01-17T09:38:45.242Z,47.30
2023-01-17T09:41:35.208Z,49.25
2023-01-17T09:44:04.789Z,54.83
2023-01-17T09:46:41.411Z,50.85
2023-01-17T09:49:13.028Z,50.22
2023-01-17T09:51:40.140Z,51.13
2023-01-17T09:54:11.757Z,46.13
2023-01-17T09:56:41.984Z,50.97
2023-01-17T09:59:33.270Z,60.63
2023-01-17T10:02:06.011Z,59.03
2023-01-17T10:04:52.074Z,46.40
2023-01-17T10:07:27.569Z,43.53
2023-01-17T10:10:09.938Z,35.58
2023-01-17T10:12:42.998Z,41.50
2023-01-17T10:15:09.613Z,36.08
2023-01-17T10:17:55.032Z,40.33
2023-01-17T10:20:34.179Z,41.25
2023-01-17T10:23:17.921Z,44.42
2023-01-17T10:25:44.701Z,37.08
2023-01-17T10:28:17.484Z,41.60
2023-01-17T10:30:58.125Z,40.75
2023-01-17T10:33:28.634Z,38.05
2023-01-17T10:35:59.630Z,35.17
2023-01-17T10:38:35.117Z,30.42
2023-01-17T10:41:07.967Z,29.65
2023-01-17T10:43:49.894Z,34.45
2023-01-17T10:46:28.558Z,35.17
2023-01-17T10:48:56.401Z,33.92
2023-01-17T10:51:25.854Z,32.05
2023-01-17T10:54:08.004Z,29.98
2023-01-17T10:56:35.020Z,36.50
2023-01-17T10:59:20.234Z,31.67
2023-01-17T11:01:48.671Z,22.10
2023-01-17T11:04:20.717Z,26.88
2023-01-17T11:06:57.868Z,32.20
2023-01-17T11:09:37.313Z,24.77
2023-01-17T11:12:04.283Z,24.33
2023-01-17T11:14:31.319Z,29.33
2023-01-17T11:17:02.088Z,32.28
2023-01-17T11:19:30.635Z,34.28
2023-01-17T11:22:01.864Z,33.63
2023-01-17T11:24:47.244Z,36.53
2023-01-17T11:27:24.349Z,37.92
2023-01-17T11:30:02.489Z,44.72
2023-01-17T11:32:32.391Z,40.58
2023-01-17T11:35:05.568Z,37.78
2023-01-17T11:37:33.414Z,36.20
2023-01-17T11:40:29.860Z,39.25
2023-01-17T11:43:01.591Z,36.63
2023-01-17T11:45:35.262Z,39.42
2023-01-17T11:48:12.155Z,45.80
2023-01-17T11:50:44.493Z,43.80
2023-01-17T11:53:23.521Z,38.60
2023-01-17T11:55:59.659Z,36.33
2023-01-17T11:58:27.255Z,36.47
2023-01-17T12:00:58.757Z,27.92
2023-01-17T12:03:25.625Z,30.15
2023-01-17T12:05:58.228Z,26.48
2023-01-17T12:08:43.703Z,27.45
2023-01-17T12:11:10.771Z,26.80
2023-01-17T12:14:03.150Z,26.00
2023-01-17T12:16:36.413Z,24.88
2023-01-17T12:19:15.668Z,25.77
2023-01-17T12:21:46.723Z,29.95
2023-01-17T12:24:32.416Z,34.67
2023-01-17T12:27:14.628Z,28.58
2023-01-17T12:30:10.703Z,34.13
2023-01-17T12:32:39.778Z,27.35
2023-01-17T12:35:12.879Z,26.65
2023-01-17T12:37:52.668Z,30.03
2023-01-17T12:40:31.237Z,27.35
2023-01-17T12:43:04.118Z,25.23
2023-01-17T12:46:23.647Z,23.53
2023-01-17T12:49:22.779Z,20.42
2023-01-17T12:52:05.376Z,16.27
2023-01-17T12:55:42.370Z,17.13
2023-01-17T12:59:12.400Z,8.90
2023-01-17T13:01:43.493Z,10.73
2023-01-17T13:04:21.731Z,8.85
2023-01-17T13:24:22.354Z,9.77
2023-01-17T13:26:55.250Z,11.45
2023-01-17T13:29:40.217Z,11.07
2023-01-17T13:32:59.819Z,8.25
2023-01-17T13:39:32.562Z,5.97
2023-01-17T13:42:38.857Z,5.57
2023-01-17T13:45:31.051Z,5.55
2023-01-17T13:48:30.890Z,6.70
2023-01-17T13:51:32.243Z,6.72
2023-01-17T13:53:57.741Z,6.57
2023-01-17T13:56:31.973Z,6.45
2023-01-17T13:59:07.720Z,6.32
2023-01-17T14:01:38.443Z,7.68
2023-01-17T14:04:08.717Z,5.93
2023-01-17T14:06:49.070Z,7.55
2023-01-17T14:09:19.325Z,7.00
2023-01-17T14:11:55.191Z,6.60
2023-01-17T14:14:40.927Z,5.75
2023-01-17T14:17:25.616Z,5.10
2023-01-17T14:19:57.141Z,7.05
2023-01-17T14:22:24.741Z,5.72
2023-01-17T14:25:00.169Z,5.22
2023-01-17T14:27:28.186Z,6.38
2023-01-17T14:30:03.629Z,6.40
2023-01-17T14:32:35.459Z,5.38
2023-01-17T14:35:02.934Z,6.68
2023-01-17T14:37:33.029Z,13.15
2023-01-17T14:40:00.902Z,6.00
2023-01-17T14:42:31.443Z,6.93
2023-01-17T14:44:58.198Z,7.90
2023-01-17T14:47:26.855Z,7.50
2023-01-17T14:50:09.428Z,9.23
2023-01-17T14:52:36.324Z,10.48
2023-01-17T14:55:14.552Z,9.27
2023-01-17T14:57:42.892Z,8.70
2023-01-17T15:00:19.698Z,13.52
2023-01-17T15:02:48.051Z,29.48
2023-01-17T15:05:20.251Z,13.45
2023-01-17T15:07:49.791Z,13.45
2023-01-17T15:10:18.547Z,21.45
2023-01-17T15:12:48.433Z,14.48
2023-01-17T15:15:37.421Z,18.60
2023-01-17T15:18:13.659Z,16.40
2023-01-17T15:20:50.600Z,18.30
2023-01-17T15:23:20.852Z,17.92
2023-01-17T15:25:48.535Z,13.77
2023-01-17T15:28:15.418Z,12.80
2023-01-17T15:31:01.430Z,15.40
2023-01-17T15:33:30.143Z,14.45
2023-01-17T15:36:04.309Z,13.55
2023-01-17T15:38:38.495Z,13.00
2023-01-17T15:41:13.645Z,12.63
2023-01-17T15:43:41.983Z,15.77
2023-01-17T15:46:27.892Z,16.85
2023-01-17T15:49:07.037Z,16.58
2023-01-17T15:51:36.823Z,13.32
2023-01-17T15:54:23.211Z,15.95
2023-01-17T15:57:00.968Z,16.40
2023-01-17T15:59:30.767Z,16.67
2023-01-17T16:01:58.406Z,15.13
2023-01-17T16:04:31.932Z,12.25
2023-01-17T16:07:17.208Z,14.32
2023-01-17T16:09:44.905Z,14.73
2023-01-17T16:12:11.894Z,12.88
2023-01-17T16:14:59.269Z,17.75
2023-01-17T16:17:25.941Z,17.00
2023-01-17T16:19:52.678Z,15.93
2023-01-17T16:22:19.461Z,17.27
2023-01-17T16:24:46.403Z,15.55
2023-01-17T16:27:13.120Z,15.80
2023-01-17T16:29:41.913Z,20.00
2023-01-17T16:32:08.875Z,22.73
2023-01-17T16:34:35.905Z,19.30
2023-01-17T16:37:04.359Z,12.20
2023-01-17T16:39:31.369Z,12.57
2023-01-17T16:42:04.203Z,13.82
2023-01-17T16:44:31.017Z,15.10
2023-01-17T16:46:59.431Z,16.35
2023-01-17T16:49:27.059Z,17.92
2023-01-17T16:51:54.405Z,20.13
2023-01-17T16:54:21.134Z,17.10
2023-01-17T16:56:47.889Z,53.72
2023-01-17T16:59:15.170Z,74.97
2023-01-17T17:01:42.836Z,30.02
2023-01-17T17:04:11.836Z,19.75
2023-01-17T17:06:39.305Z,31.02
2023-01-17T17:09:06.141Z,26.38
2023-01-17T17:11:32.875Z,29.83
2023-01-17T17:13:59.671Z,26.08
2023-01-17T17:16:30.109Z,25.92
2023-01-17T17:18:57.882Z,21.30
2023-01-17T17:21:24.758Z,17.50
2023-01-17T17:23:57.075Z,16.88
2023-01-17T17:26:24.750Z,12.10
2023-01-17T17:28:52.739Z,11.07
2023-01-17T17:31:19.701Z,11.68
2023-01-17T17:33:46.610Z,11.10
2023-01-17T17:36:13.345Z,10.65
2023-01-17T17:38:53.315Z,13.75
2023-01-17T17:41:21.302Z,12.40
2023-01-17T17:43:48.092Z,10.15
2023-01-17T17:46:14.846Z,13.77
2023-01-17T17:48:41.983Z,11.15
2023-01-17T17:51:20.653Z,16.25
2023-01-17T17:53:47.582Z,11.65
2023-01-17T17:56:14.374Z,12.25
2023-01-17T17:58:41.267Z,13.27
2023-01-17T18:01:08.361Z,14.68
2023-01-17T18:03:35.518Z,13.73
2023-01-17T18:06:08.929Z,15.25
2023-01-17T18:08:37.508Z,15.18
2023-01-17T18:11:06.319Z,17.38
2023-01-17T18:13:33.214Z,17.27
2023-01-17T18:16:05.609Z,13.63
2023-01-17T18:18:33.334Z,13.70
2023-01-17T18:21:16.419Z,12.80
2023-01-17T18:23:44.259Z,12.48
2023-01-17T18:26:24.637Z,11.48
2023-01-17T18:29:39.774Z,13.02
2023-01-17T18:32:06.781Z,14.70
2023-01-17T18:35:02.883Z,12.35
2023-01-17T18:40:27.924Z,12.82
2023-01-17T18:48:49.183Z,10.57
2023-01-17T18:51:21.303Z,13.68
2023-01-17T18:54:08.186Z,20.02
2023-01-17T18:57:10.821Z,21.58
2023-01-17T19:03:44.044Z,13.77
2023-01-17T19:12:22.675Z,26.45
2023-01-17T19:17:43.118Z,27.38
2023-01-17T19:20:25.944Z,26.80
2023-01-17T19:23:35.936Z,19.23
2023-01-17T19:26:06.072Z,20.70
2023-01-17T19:28:35.618Z,23.17
2023-01-17T19:31:10.923Z,27.73
2023-01-17T19:37:28.625Z,22.27
2023-01-17T19:40:27.861Z,24.52
2023-01-17T19:42:55.629Z,28.27
2023-01-17T19:45:22.641Z,33.88
2023-01-17T19:48:14.417Z,29.00
2023-01-17T19:50:55.206Z,27.73
2023-01-17T19:53:34.895Z,24.42
2023-01-17T19:56:31.292Z,28.13
2023-01-17T19:59:31.058Z,25.60
2023-01-17T20:08:20.294Z,21.77
2023-01-17T20:10:54.619Z,22.70
2023-01-17T20:13:52.152Z,15.13
2023-01-17T20:16:19.567Z,15.05
2023-01-17T20:19:13.623Z,16.65
2023-01-17T20:22:16.676Z,17.60
2023-01-17T20:25:54.077Z,20.13
2023-01-17T20:28:23.699Z,17.55
2023-01-17T20:37:12.577Z,12.23
2023-01-17T20:41:47.247Z,13.75
2023-01-17T20:43:10.190Z,19.95
2023-01-17T20:45:39.926Z,17.88
2023-01-17T20:48:13.618Z,16.45
2023-01-17T20:51:39.018Z,16.20
2023-01-17T20:54:14.773Z,17.75
2023-01-17T20:59:53.049Z,16.75
2023-01-17T21:02:23.543Z,17.60
2023-01-17T21:05:08.750Z,19.02
2023-01-17T21:07:56.121Z,14.30
2023-01-17T21:10:38.654Z,17.48
2023-01-17T21:13:07.774Z,15.07
2023-01-17T21:15:52.310Z,18.10
2023-01-17T21:19:14.315Z,19.50
2023-01-17T21:22:31.267Z,25.27
2023-01-17T21:24:58.976Z,26.00
2023-01-17T21:27:57.699Z,22.15
2023-01-17T21:30:54.941Z,19.77
2023-01-17T21:34:48.037Z,20.42
2023-01-17T21:37:30.292Z,19.10
2023-01-17T21:40:27.107Z,18.95
2023-01-17T21:45:52.592Z,22.60
2023-01-17T21:48:19.348Z,24.17
2023-01-17T21:51:16.755Z,19.85
2023-01-17T21:53:43.752Z,19.25
2023-01-17T21:56:30.896Z,19.25
2023-01-17T21:58:58.011Z,19.17
2023-01-17T22:01:26.732Z,20.23
2023-01-17T22:03:55.601Z,22.05
2023-01-17T22:06:23.886Z,25.42
2023-01-17T22:08:50.716Z,23.55
2023-01-17T22:11:19.206Z,24.58
2023-01-17T22:13:46.136Z,24.08
2023-01-17T22:16:14.078Z,23.98
2023-01-17T22:18:41.571Z,26.05
2023-01-17T22:21:11.856Z,24.35
2023-01-17T22:23:39.499Z,24.67
2023-01-17T22:26:07.808Z,25.95
2023-01-17T22:28:34.796Z,28.90
2023-01-17T22:31:09.155Z,34.45
2023-01-17T22:33:37.027Z,34.92
2023-01-17T22:36:04.416Z,34.08
2023-01-17T22:38:31.611Z,33.72
2023-01-17T22:41:07.969Z,39.08
2023-01-17T22:43:39.239Z,41.03
2023-01-17T22:46:06.681Z,40.25
2023-01-17T22:48:34.919Z,41.60
2023-01-17T22:51:02.577Z,44.63
2023-01-17T22:53:29.649Z,46.88
2023-01-17T22:56:05.304Z,54.75
2023-01-17T22:58:32.764Z,52.53
2023-01-17T23:01:08.773Z,50.05
2023-01-17T23:03:35.684Z,49.17
2023-01-17T23:06:12.241Z,50.35
2023-01-17T23:08:39.978Z,51.63
2023-01-17T23:11:38.433Z,52.72
2023-01-17T23:14:06.119Z,50.20
2023-01-17T23:16:59.613Z,51.92
2023-01-17T23:19:28.163Z,56.50
2023-01-17T23:22:15.298Z,59.95
2023-01-17T23:24:46.267Z,67.30
2023-01-17T23:27:34.189Z,59.47
2023-01-17T23:30:01.733Z,67.43
2023-01-17T23:32:28.731Z,68.93
2023-01-17T23:34:55.617Z,61.72
2023-01-17T23:37:46.296Z,68.90
2023-01-17T23:40:14.069Z,64.40
2023-01-17T23:43:00.434Z,70.90
2023-01-17T23:45:27.661Z,73.15
2023-01-17T23:47:57.350Z,74.95
2023-01-17T23:50:29.648Z,75.38
2023-01-17T23:52:57.101Z,67.75
2023-01-17T23:55:24.261Z,73.13
2023-01-17T23:57:55.225Z,70.68
